Time,TemperatureF,DewpointF,PressureIn,WindDirection,WindDirectionDegrees,WindSpeedMPH,WindSpeedGustMPH,Humidity,HourlyPrecipIn,Conditions,Clouds,dailyrainin,SoftwareType,DateUTC
2013-02-14 00:01:00,29.0,17.0,-100.00,East,90,12.0,14.0,59,-99.99,,,0.00,,2013-02-14 07:01:00,
2013-02-14 00:11:00,29.0,17.0,-100.00,East,100,21.0,24.0,59,-99.99,,,0.00,,2013-02-14 07:11:00,
2013-02-14 00:21:00,29.0,17.0,-100.00,East,100,21.0,24.0,59,-99.99,,,0.00,,2013-02-14 07:21:00,
2013-02-14 00:32:00,29.0,17.0,-100.00,ESE,110,17.0,21.0,61,-99.99,,,0.00,,2013-02-14 07:32:00,
2013-02-14 00:42:00,29.0,17.0,-100.00,ESE,110,17.0,21.0,61,-99.99,,,0.00,,2013-02-14 07:42:00,
2013-02-14 00:51:00,28.0,17.0,-100.00,East,90,14.0,20.0,63,-99.99,,,0.00,,2013-02-14 07:51:00,
2013-02-14 01:01:00,28.0,17.0,-100.00,East,90,14.0,20.0,63,-99.99,,,0.00,,2013-02-14 08:01:00,
2013-02-14 01:11:00,28.0,17.0,-100.00,ESE,105,16.0,19.0,63,-99.99,,,0.00,,2013-02-14 08:11:00,
2013-02-14 01:21:00,28.0,17.0,-100.00,ESE,105,16.0,19.0,63,-99.99,,,0.00,,2013-02-14 08:21:00,
2013-02-14 01:32:00,26.0,16.0,-100.00,East,100,18.0,22.0,63,-99.99,,,0.00,,2013-02-14 08:32:00,
2013-02-14 01:43:00,26.0,16.0,-100.00,East,100,18.0,22.0,63,-99.99,,,0.00,,2013-02-14 08:43:00,
2013-02-14 01:52:00,26.0,16.0,-100.00,ESE,105,14.0,19.0,65,-99.99,,,0.00,,2013-02-14 08:52:00,
2013-02-14 02:02:00,26.0,16.0,-100.00,ESE,105,14.0,19.0,65,-99.99,,,0.00,,2013-02-14 09:02:00,
2013-02-14 02:11:00,25.0,16.0,-100.00,ESE,105,16.0,20.0,66,-99.99,,,0.00,,2013-02-14 09:11:00,
2013-02-14 02:21:00,25.0,16.0,-100.00,ESE,105,16.0,20.0,66,-99.99,,,0.00,,2013-02-14 09:21:00,
2013-02-14 02:32:00,26.0,16.0,-100.00,ESE,105,18.0,24.0,67,-99.99,,,0.00,,2013-02-14 09:32:00,
2013-02-14 02:42:00,26.0,16.0,-100.00,ESE,105,18.0,24.0,67,-99.99,,,0.00,,2013-02-14 09:42:00,
2013-02-14 02:51:00,26.0,17.0,-100.00,ESE,105,16.0,20.0,67,-99.99,,,0.00,,2013-02-14 09:51:00,
2013-02-14 03:02:00,26.0,17.0,-100.00,ESE,105,16.0,20.0,67,-99.99,,,0.00,,2013-02-14 10:02:00,
2013-02-14 03:11:00,26.0,17.0,-100.00,East,95,17.0,20.0,68,-99.99,,,0.00,,2013-02-14 10:11:00,
2013-02-14 03:21:00,26.0,17.0,-100.00,East,95,17.0,20.0,68,-99.99,,,0.00,,2013-02-14 10:21:00,
2013-02-14 03:31:00,26.0,17.0,-100.00,ESE,105,17.0,19.0,69,-99.99,,,0.00,,2013-02-14 10:31:00,
2013-02-14 03:42:00,26.0,17.0,-100.00,ESE,105,17.0,19.0,69,-99.99,,,0.00,,2013-02-14 10:42:00,
2013-02-14 03:52:00,26.0,18.0,-100.00,ESE,110,20.0,24.0,71,-99.99,,,0.00,,2013-02-14 10:52:00,
2013-02-14 04:02:00,26.0,18.0,-100.00,ESE,110,20.0,24.0,71,-99.99,,,0.00,,2013-02-14 11:02:00,
2013-02-14 04:11:00,26.0,18.0,-100.00,East,100,20.0,26.0,73,-99.99,,,0.00,,2013-02-14 11:11:00,
2013-02-14 04:21:00,26.0,18.0,-100.00,East,100,20.0,26.0,73,-99.99,,,0.00,,2013-02-14 11:21:00,
2013-02-14 04:32:00,26.0,18.0,-100.00,East,100,20.0,26.0,73,-99.99,,,0.00,,2013-02-14 11:32:00,
2013-02-14 05:12:00,25.0,20.0,-100.00,ESE,110,14.0,16.0,81,-99.99,,,0.00,,2013-02-14 12:12:00,
2013-02-14 05:22:00,25.0,20.0,-100.00,ESE,110,14.0,16.0,81,-99.99,,,0.00,,2013-02-14 12:22:00,
2013-02-14 05:32:00,24.0,20.0,-100.00,ESE,115,22.0,27.0,83,-99.99,,,0.00,,2013-02-14 12:32:00,
2013-02-14 05:42:00,24.0,20.0,-100.00,ESE,115,22.0,27.0,83,-99.99,,,0.00,,2013-02-14 12:42:00,
2013-02-14 05:53:00,24.0,20.0,-100.00,ESE,110,16.0,23.0,84,-99.99,,,0.00,,2013-02-14 12:53:00,
2013-02-14 06:01:00,24.0,20.0,-100.00,ESE,110,16.0,23.0,84,-99.99,,,0.00,,2013-02-14 13:01:00,
2013-02-14 06:11:00,24.0,20.0,-100.00,SE,125,21.0,24.0,84,-99.99,,,0.00,,2013-02-14 13:11:00,
2013-02-14 06:21:00,24.0,20.0,-100.00,SE,125,21.0,24.0,84,-99.99,,,0.00,,2013-02-14 13:21:00,
2013-02-14 06:31:00,24.0,20.0,-100.00,SE,125,21.0,24.0,84,-99.99,,,0.00,,2013-02-14 13:31:00,
2013-02-14 06:51:00,23.0,20.0,-100.00,SE,125,15.0,19.0,85,-99.99,,,0.00,,2013-02-14 13:51:00,
2013-02-14 07:01:00,23.0,20.0,-100.00,SE,125,15.0,19.0,85,-99.99,,,0.00,,2013-02-14 14:01:00,
2013-02-14 07:11:00,23.0,20.0,-100.00,ESE,120,15.0,17.0,88,-99.99,,,0.00,,2013-02-14 14:11:00,
2013-02-14 07:21:00,23.0,20.0,-100.00,ESE,120,15.0,17.0,88,-99.99,,,0.00,,2013-02-14 14:21:00,
2013-02-14 07:31:00,24.0,21.0,-100.00,ESE,115,11.0,12.0,90,-99.99,,,0.00,,2013-02-14 14:31:00,
2013-02-14 07:41:00,24.0,21.0,-100.00,ESE,115,11.0,12.0,90,-99.99,,,0.00,,2013-02-14 14:41:00,
2013-02-14 07:52:00,23.0,21.0,-100.00,ESE,120,11.0,14.0,91,-99.99,,,0.00,,2013-02-14 14:52:00,
2013-02-14 08:01:00,23.0,21.0,-100.00,ESE,120,11.0,14.0,91,-99.99,,,0.00,,2013-02-14 15:01:00,
2013-02-14 08:11:00,23.0,22.0,-100.00,SE,135,11.0,12.0,93,-99.99,,,0.00,,2013-02-14 15:11:00,
2013-02-14 08:21:00,23.0,22.0,-100.00,SE,135,11.0,12.0,93,-99.99,,,0.00,,2013-02-14 15:21:00,
2013-02-14 08:32:00,23.0,22.0,-100.00,SE,125,9.0,12.0,95,-99.99,,,0.00,,2013-02-14 15:32:00,
2013-02-14 08:42:00,23.0,22.0,-100.00,SE,125,9.0,12.0,95,-99.99,,,0.00,,2013-02-14 15:42:00,
2013-02-14 08:52:00,24.0,22.0,-100.00,ESE,105,8.0,11.0,95,-99.99,,,0.00,,2013-02-14 15:52:00,
2013-02-14 09:01:00,24.0,22.0,-100.00,ESE,105,8.0,11.0,95,-99.99,,,0.00,,2013-02-14 16:01:00,
2013-02-14 09:11:00,23.0,22.0,-100.00,East,100,16.0,22.0,95,-99.99,,,0.00,,2013-02-14 16:11:00,
2013-02-14 09:21:00,23.0,22.0,-100.00,East,100,16.0,22.0,95,-99.99,,,0.00,,2013-02-14 16:21:00,
2013-02-14 09:32:00,23.0,22.0,-100.00,East,100,16.0,22.0,95,-99.99,,,0.00,,2013-02-14 16:32:00,
2013-02-14 09:52:00,23.0,20.0,-100.00,ESE,115,14.0,17.0,89,-99.99,,,0.00,,2013-02-14 16:52:00,
2013-02-14 10:01:00,23.0,20.0,-100.00,ESE,115,14.0,17.0,89,-99.99,,,0.00,,2013-02-14 17:01:00,
2013-02-14 10:11:00,23.0,20.0,-100.00,ESE,105,10.0,15.0,89,-99.99,,,0.00,,2013-02-14 17:11:00,
2013-02-14 10:21:00,23.0,20.0,-100.00,ESE,105,10.0,15.0,89,-99.99,,,0.00,,2013-02-14 17:21:00,
2013-02-14 10:32:00,22.0,18.0,-100.00,ESE,110,16.0,18.0,83,-99.99,,,0.00,,2013-02-14 17:32:00,
2013-02-14 10:42:00,22.0,18.0,-100.00,ESE,110,16.0,18.0,83,-99.99,,,0.00,,2013-02-14 17:42:00,
2013-02-14 10:52:00,23.0,18.0,-100.00,ESE,110,19.0,25.0,82,-99.99,,,0.00,,2013-02-14 17:52:00,
2013-02-14 11:01:00,23.0,18.0,-100.00,ESE,110,19.0,25.0,82,-99.99,,,0.00,,2013-02-14 18:01:00,
2013-02-14 11:11:00,23.0,18.0,-100.00,ESE,110,11.0,15.0,80,-99.99,,,0.00,,2013-02-14 18:11:00,
2013-02-14 11:23:00,23.0,18.0,-100.00,ESE,110,11.0,15.0,80,-99.99,,,0.00,,2013-02-14 18:23:00,
2013-02-14 11:32:00,24.0,17.0,-100.00,East,95,20.0,22.0,75,-99.99,,,0.00,,2013-02-14 18:32:00,
2013-02-14 11:42:00,24.0,17.0,-100.00,East,95,20.0,22.0,75,-99.99,,,0.00,,2013-02-14 18:42:00,
2013-02-14 11:51:00,24.0,17.0,-100.00,ESE,110,17.0,22.0,74,-99.99,,,0.00,,2013-02-14 18:51:00,
2013-02-14 12:02:00,24.0,17.0,-100.00,ESE,110,17.0,22.0,74,-99.99,,,0.00,,2013-02-14 19:02:00,
2013-02-14 12:11:00,24.0,17.0,-100.00,ESE,105,20.0,24.0,73,-99.99,,,0.00,,2013-02-14 19:11:00,
2013-02-14 12:21:00,24.0,17.0,-100.00,ESE,105,20.0,24.0,73,-99.99,,,0.00,,2013-02-14 19:21:00,
2013-02-14 12:31:00,25.0,16.0,-100.00,East,90,18.0,22.0,69,-99.99,,,0.00,,2013-02-14 19:31:00,
2013-02-14 12:42:00,25.0,16.0,-100.00,East,90,18.0,22.0,69,-99.99,,,0.00,,2013-02-14 19:42:00,
2013-02-14 12:51:00,25.0,17.0,-100.00,East,100,12.0,17.0,69,-99.99,,,0.00,,2013-02-14 19:51:00,
2013-02-14 13:01:00,25.0,17.0,-100.00,East,100,12.0,17.0,69,-99.99,,,0.00,,2013-02-14 20:01:00,
2013-02-14 13:11:00,26.0,18.0,-100.00,East,95,14.0,16.0,70,-99.99,,,0.00,,2013-02-14 20:11:00,
2013-02-14 13:21:00,26.0,18.0,-100.00,East,95,14.0,16.0,70,-99.99,,,0.00,,2013-02-14 20:21:00,
2013-02-14 13:32:00,25.0,16.0,-100.00,East,90,16.0,19.0,69,-99.99,,,0.00,,2013-02-14 20:32:00,
2013-02-14 13:42:00,25.0,16.0,-100.00,East,90,16.0,19.0,69,-99.99,,,0.00,,2013-02-14 20:42:00,
2013-02-14 13:52:00,25.0,16.0,-100.00,East,95,16.0,21.0,69,-99.99,,,0.00,,2013-02-14 20:52:00,
2013-02-14 14:02:00,25.0,16.0,-100.00,East,95,16.0,21.0,69,-99.99,,,0.00,,2013-02-14 21:02:00,
2013-02-14 14:11:00,25.0,16.0,-100.00,East,95,17.0,22.0,68,-99.99,,,0.00,,2013-02-14 21:11:00,
2013-02-14 14:21:00,25.0,16.0,-100.00,East,95,17.0,22.0,68,-99.99,,,0.00,,2013-02-14 21:21:00,
2013-02-14 14:31:00,24.0,16.0,-100.00,ESE,120,12.0,16.0,72,-99.99,,,0.00,,2013-02-14 21:31:00,
2013-02-14 14:42:00,24.0,16.0,-100.00,ESE,120,12.0,16.0,72,-99.99,,,0.00,,2013-02-14 21:42:00,
2013-02-14 14:51:00,24.0,17.0,-100.00,ESE,120,14.0,16.0,73,-99.99,,,0.00,,2013-02-14 21:51:00,
2013-02-14 15:02:00,24.0,17.0,-100.00,ESE,120,14.0,16.0,73,-99.99,,,0.00,,2013-02-14 22:02:00,
2013-02-14 15:11:00,24.0,17.0,-100.00,SE,135,15.0,20.0,72,-99.99,,,0.00,,2013-02-14 22:11:00,
2013-02-14 15:21:00,24.0,17.0,-100.00,SE,135,15.0,20.0,72,-99.99,,,0.00,,2013-02-14 22:21:00,
2013-02-14 15:31:00,27.0,17.0,-100.00,SE,135,14.0,16.0,66,-99.99,,,0.00,,2013-02-14 22:31:00,
2013-02-14 15:42:00,27.0,17.0,-100.00,SE,135,14.0,16.0,66,-99.99,,,0.00,,2013-02-14 22:42:00,
2013-02-14 15:51:00,25.0,16.0,-100.00,SE,140,12.0,14.0,67,-99.99,,,0.00,,2013-02-14 22:51:00,
2013-02-14 16:01:00,25.0,16.0,-100.00,SE,140,12.0,14.0,67,-99.99,,,0.00,,2013-02-14 23:01:00,
2013-02-14 16:11:00,24.0,15.0,-100.00,ESE,120,7.0,8.0,68,-99.99,,,0.00,,2013-02-14 23:11:00,
2013-02-14 16:21:00,24.0,15.0,-100.00,ESE,120,7.0,8.0,68,-99.99,,,0.00,,2013-02-14 23:21:00,
2013-02-14 16:32:00,27.0,16.0,-100.00,SE,135,6.0,8.0,65,-99.99,,,0.00,,2013-02-14 23:32:00,
2013-02-14 16:42:00,27.0,16.0,-100.00,SE,135,6.0,8.0,65,-99.99,,,0.00,,2013-02-14 23:42:00,
2013-02-14 16:52:00,27.0,17.0,-100.00,SE,145,6.0,8.0,65,-99.99,,,0.00,,2013-02-14 23:52:00,
2013-02-14 17:01:00,27.0,17.0,-100.00,SE,145,6.0,8.0,65,-99.99,,,0.00,,2013-02-15 00:01:00,
2013-02-14 17:11:00,26.0,16.0,-100.00,SSE,150,9.0,10.0,65,-99.99,,,0.00,,2013-02-15 00:11:00,
2013-02-14 17:22:00,26.0,16.0,-100.00,SSE,150,9.0,10.0,65,-99.99,,,0.00,,2013-02-15 00:22:00,
2013-02-14 17:32:00,24.0,15.0,-100.00,SE,130,6.0,6.0,68,-99.99,,,0.00,,2013-02-15 00:32:00,
2013-02-14 17:42:00,24.0,15.0,-100.00,SE,130,6.0,6.0,68,-99.99,,,0.00,,2013-02-15 00:42:00,
2013-02-14 17:51:00,22.0,14.0,-100.00,ESE,105,4.0,5.0,69,-99.99,,,0.00,,2013-02-15 00:51:00,
2013-02-14 18:02:00,22.0,14.0,-100.00,ESE,105,4.0,5.0,69,-99.99,,,0.00,,2013-02-15 01:02:00,
2013-02-14 18:11:00,22.0,14.0,-100.00,ENE,75,3.0,4.0,72,-99.99,,,-99.99,,2013-02-15 01:11:00,
2013-02-14 18:21:00,22.0,14.0,-100.00,ENE,75,3.0,4.0,72,-99.99,,,-99.99,,2013-02-15 01:21:00,
2013-02-14 18:32:00,22.0,14.0,-100.00,ENE,75,3.0,4.0,72,-99.99,,,-99.99,,2013-02-15 01:32:00,
2013-02-14 18:51:00,22.0,15.0,-100.00,SSE,150,4.0,5.0,75,-99.99,,,0.00,,2013-02-15 01:51:00,
2013-02-14 19:01:00,22.0,15.0,-100.00,SSE,150,4.0,5.0,75,-99.99,,,0.00,,2013-02-15 02:01:00,
2013-02-14 19:11:00,21.0,14.0,-100.00,SSE,160,4.0,5.0,75,-99.99,,,0.00,,2013-02-15 02:11:00,
2013-02-14 19:21:00,21.0,14.0,-100.00,SSE,160,4.0,5.0,75,-99.99,,,0.00,,2013-02-15 02:21:00,
2013-02-14 19:31:00,19.0,13.0,-100.00,East,95,2.0,3.0,78,-99.99,,,0.00,,2013-02-15 02:31:00,
2013-02-14 19:41:00,19.0,13.0,-100.00,East,95,2.0,3.0,78,-99.99,,,0.00,,2013-02-15 02:41:00,
2013-02-14 19:52:00,18.0,13.0,-100.00,East,80,2.0,2.0,80,-99.99,,,0.00,,2013-02-15 02:52:00,
2013-02-14 20:02:00,18.0,13.0,-100.00,East,80,2.0,2.0,80,-99.99,,,0.00,,2013-02-15 03:02:00,
2013-02-14 20:11:00,19.0,14.0,-100.00,SSE,150,4.0,4.0,82,-99.99,,,0.00,,2013-02-15 03:11:00,
2013-02-14 20:22:00,19.0,14.0,-100.00,SSE,150,4.0,4.0,82,-99.99,,,0.00,,2013-02-15 03:22:00,
2013-02-14 20:32:00,19.0,15.0,-100.00,SE,130,3.0,4.0,83,-99.99,,,-99.99,,2013-02-15 03:32:00,
2013-02-14 20:42:00,19.0,15.0,-100.00,SE,130,3.0,4.0,83,-99.99,,,-99.99,,2013-02-15 03:42:00,
2013-02-14 20:52:00,18.0,14.0,-100.00,ESE,115,2.0,3.0,83,-99.99,,,0.00,,2013-02-15 03:52:00,
2013-02-14 21:01:00,18.0,14.0,-100.00,ESE,115,2.0,3.0,83,-99.99,,,0.00,,2013-02-15 04:01:00,
2013-02-14 21:11:00,18.0,14.0,-100.00,SE,145,4.0,4.0,84,-99.99,,,0.00,,2013-02-15 04:11:00,
2013-02-14 21:21:00,18.0,14.0,-100.00,SE,145,4.0,4.0,84,-99.99,,,0.00,,2013-02-15 04:21:00,
2013-02-14 21:32:00,18.0,14.0,-100.00,SE,125,3.0,4.0,85,-99.99,,,0.00,,2013-02-15 04:32:00,
2013-02-14 21:42:00,18.0,14.0,-100.00,SE,125,3.0,4.0,85,-99.99,,,0.00,,2013-02-15 04:42:00,
2013-02-14 21:52:00,18.0,14.0,-100.00,SSE,155,4.0,6.0,85,-99.99,,,0.00,,2013-02-15 04:52:00,
2013-02-14 22:02:00,18.0,14.0,-100.00,SSE,155,4.0,6.0,85,-99.99,,,0.00,,2013-02-15 05:02:00,
2013-02-14 22:12:00,16.0,13.0,-100.00,East,90,3.0,3.0,85,-99.99,,,0.00,,2013-02-15 05:12:00,
2013-02-14 22:22:00,16.0,13.0,-100.00,East,90,3.0,3.0,85,-99.99,,,0.00,,2013-02-15 05:22:00,
2013-02-14 22:32:00,18.0,14.0,-100.00,SSE,155,6.0,8.0,87,-99.99,,,0.00,,2013-02-15 05:32:00,
2013-02-14 22:42:00,18.0,14.0,-100.00,SSE,155,6.0,8.0,87,-99.99,,,0.00,,2013-02-15 05:42:00,
2013-02-14 22:52:00,19.0,15.0,-100.00,SSE,160,5.0,6.0,85,-99.99,,,0.00,,2013-02-15 05:52:00,
2013-02-14 23:02:00,19.0,15.0,-100.00,SSE,160,5.0,6.0,85,-99.99,,,0.00,,2013-02-15 06:02:00,
2013-02-14 23:11:00,19.0,15.0,-100.00,SSE,160,5.0,6.0,85,-99.99,,,0.00,,2013-02-15 06:11:00,
2013-02-14 23:32:00,19.0,15.0,-100.00,SE,140,6.0,6.0,85,-99.99,,,0.00,,2013-02-15 06:32:00,
2013-02-14 23:42:00,19.0,15.0,-100.00,SE,140,6.0,6.0,85,-99.99,,,0.00,,2013-02-15 06:42:00,
2013-02-14 23:52:00,19.0,15.0,-100.00,ESE,120,6.0,8.0,85,-99.99,,,0.00,,2013-02-15 06:52:00,